Time;durP1;ratioP1;P1;durP2;ratioP2;P2;SDS_P1;SDS_P2;PMS_P1;PMS_P2;Temp;Humidity;BMP_temperature;BMP_pressure;BME280_temperature;BME280_humidity;BME280_pressure;Samples;Min_cycle;Max_cycle;Signal;HPM_P1;HPM_P2
2023/05/09 00:02:08;;;;;;;122.72;39.03;;;16.40;99.90;;;;;;6281312;22;19995;-89
2023/05/09 00:04:37;;;;;;;151.10;40.80;;;16.40;99.90;;;;;;6256378;22;20007;-88
2023/05/09 00:07:11;;;;;;;142.48;42.03;;;16.40;99.90;;;;;;6281628;22;20003;-89
2023/05/09 00:09:40;;;;;;;103.85;37.50;;;16.40;99.90;;;;;;6257789;22;19999;-88
2023/05/09 00:12:06;;;;;;;140.23;42.33;;;16.40;99.90;;;;;;6281068;22;20003;-88
2023/05/09 00:14:35;;;;;;;137.98;41.55;;;16.40;99.90;;;;;;6255699;22;20011;-87
2023/05/09 00:17:01;;;;;;;155.23;41.30;;;16.40;99.90;;;;;;6282432;22;20321;-88
2023/05/09 00:19:30;;;;;;;121.47;41.25;;;16.40;99.90;;;;;;6281500;22;19999;-88
2023/05/09 00:21:56;;;;;;;117.85;39.92;;;16.40;99.90;;;;;;6281939;22;20082;-88
2023/05/09 00:24:24;;;;;;;188.55;44.95;;;16.30;99.90;;;;;;6282061;22;20361;-88
2023/05/09 00:27:11;;;;;;;156.68;44.75;;;16.40;99.90;;;;;;6283987;22;20094;-89
2023/05/09 00:29:37;;;;;;;171.60;45.53;;;16.40;99.90;;;;;;6282879;22;19999;-89
2023/05/09 00:32:03;;;;;;;166.93;45.17;;;16.30;99.90;;;;;;6284468;22;20010;-90
2023/05/09 00:34:29;;;;;;;154.70;45.38;;;16.30;99.90;;;;;;6298293;22;20000;-89
2023/05/09 00:36:57;;;;;;;167.57;44.03;;;16.40;99.90;;;;;;6270593;22;20007;-88
2023/05/09 00:39:26;;;;;;;141.07;42.45;;;16.30;99.90;;;;;;6284872;22;20027;-89
2023/05/09 00:41:54;;;;;;;155.45;43.25;;;16.40;99.90;;;;;;6287942;22;19995;-89
2023/05/09 00:44:22;;;;;;;144.88;41.53;;;16.40;99.90;;;;;;6298597;22;20009;-89
2023/05/09 00:46:50;;;;;;;118.85;39.80;;;16.40;99.90;;;;;;6286217;22;19996;-88
2023/05/09 00:49:15;;;;;;;109.25;40.13;;;16.40;99.90;;;;;;6257176;22;20026;-89
2023/05/09 00:51:41;;;;;;;117.03;39.22;;;16.40;99.90;;;;;;6282847;22;20011;-89
2023/05/09 00:54:08;;;;;;;123.50;39.53;;;16.40;99.90;;;;;;6282976;22;20011;-89
2023/05/09 00:56:33;;;;;;;114.68;42.05;;;16.40;99.90;;;;;;6282516;22;20003;-89
2023/05/09 00:58:59;;;;;;;116.68;38.88;;;16.30;99.90;;;;;;6282393;22;19999;-89
2023/05/09 01:01:30;;;;;;;214.23;45.20;;;16.30;99.90;;;;;;6285708;22;20011;-89
2023/05/09 01:03:56;;;;;;;165.68;46.50;;;16.30;99.90;;;;;;6258569;22;20018;-89
2023/05/09 01:06:38;;;;;;;134.80;41.58;;;16.30;99.90;;;;;;6257067;22;20015;-88
2023/05/09 01:09:19;;;;;;;234.52;47.47;;;16.30;99.90;;;;;;6282887;22;20003;-89
2023/05/09 01:11:55;;;;;;;152.38;42.13;;;16.30;99.90;;;;;;6309593;22;20007;-88
2023/05/09 01:14:55;;;;;;;144.27;40.88;;;16.30;99.90;;;;;;6281985;22;20004;-89
2023/05/09 01:17:54;;;;;;;168.48;44.25;;;16.30;99.90;;;;;;6261824;22;20429;-89
2023/05/09 01:20:33;;;;;;;126.63;40.47;;;16.30;99.90;;;;;;6282708;22;19999;-88
2023/05/09 01:23:32;;;;;;;123.05;39.88;;;16.30;99.90;;;;;;6283161;22;20409;-89
2023/05/09 01:26:35;;;;;;;157.95;43.33;;;16.30;99.90;;;;;;6282783;22;20034;-89
2023/05/09 01:29:32;;;;;;;132.13;46.55;;;16.30;99.90;;;;;;6282993;22;20054;-89
2023/05/09 01:32:06;;;;;;;157.27;43.85;;;16.30;99.90;;;;;;6283476;22;20052;-88
2023/05/09 01:34:42;;;;;;;158.30;44.10;;;16.30;99.90;;;;;;6283811;22;19999;-88
2023/05/09 01:37:21;;;;;;;132.80;39.78;;;16.30;99.90;;;;;;6283353;22;20011;-90
2023/05/09 01:39:51;;;;;;;185.50;45.70;;;16.30;99.90;;;;;;6282732;22;20022;-88
2023/05/09 01:42:20;;;;;;;142.02;42.25;;;16.30;99.90;;;;;;6282537;22;19999;-88
2023/05/09 01:44:46;;;;;;;171.73;46.13;;;16.30;99.90;;;;;;6282005;22;20337;-88
2023/05/09 01:47:17;;;;;;;199.75;45.58;;;16.30;99.90;;;;;;6282096;22;19999;-89
2023/05/09 01:49:54;;;;;;;170.43;43.88;;;16.30;99.90;;;;;;6282424;22;20003;-88
2023/05/09 01:52:24;;;;;;;116.03;41.80;;;16.30;99.90;;;;;;6281990;22;20425;-88
2023/05/09 01:54:50;;;;;;;182.20;46.28;;;16.30;99.90;;;;;;6282347;22;20021;-88
2023/05/09 01:57:18;;;;;;;173.20;47.53;;;16.30;99.90;;;;;;6256679;22;20042;-89
2023/05/09 01:59:44;;;;;;;159.20;47.13;;;16.30;99.90;;;;;;6281897;22;19995;-88
2023/05/09 02:02:13;;;;;;;170.20;46.80;;;16.30;99.90;;;;;;6282344;22;20003;-89
2023/05/09 02:04:44;;;;;;;202.50;47.25;;;16.30;99.90;;;;;;6281992;22;20429;-89
2023/05/09 02:07:11;;;;;;;198.95;48.60;;;16.30;99.90;;;;;;6285715;22;20384;-88
2023/05/09 02:09:37;;;;;;;156.68;43.28;;;16.30;99.90;;;;;;6257154;22;20003;-89
2023/05/09 02:12:06;;;;;;;143.90;41.25;;;16.30;99.90;;;;;;6281836;22;20010;-89
2023/05/09 02:14:32;;;;;;;232.65;48.90;;;16.30;99.90;;;;;;6256629;22;20011;-88
2023/05/09 02:17:04;;;;;;;229.45;50.13;;;16.30;99.90;;;;;;6256775;22;20329;-89
2023/05/09 02:19:34;;;;;;;164.85;46.63;;;16.30;99.90;;;;;;6281821;22;20007;-89
2023/05/09 02:22:01;;;;;;;216.43;50.25;;;16.30;99.90;;;;;;6282405;22;19995;-89
2023/05/09 02:24:26;;;;;;;129.10;43.90;;;16.30;99.90;;;;;;6281769;22;20010;-89
2023/05/09 02:26:55;;;;;;;195.10;48.63;;;16.30;99.90;;;;;;6282512;22;20003;-90
2023/05/09 02:29:37;;;;;;;156.13;45.58;;;16.30;99.90;;;;;;6282309;22;20048;-89
2023/05/09 02:32:04;;;;;;;210.38;52.10;;;16.30;99.90;;;;;;6281687;22;20006;-89
2023/05/09 02:34:31;;;;;;;202.95;51.53;;;16.30;99.90;;;;;;6256253;22;20011;-89
2023/05/09 02:36:57;;;;;;;155.13;46.55;;;16.30;99.90;;;;;;6281814;22;20003;-89
2023/05/09 02:39:22;;;;;;;144.93;47.03;;;16.30;99.90;;;;;;6281941;22;20444;-89
2023/05/09 02:41:50;;;;;;;194.13;47.55;;;16.30;99.90;;;;;;6281491;22;20078;-89
2023/05/09 02:44:16;;;;;;;162.70;46.75;;;16.20;99.90;;;;;;6282482;22;20036;-89
2023/05/09 02:46:44;;;;;;;150.18;44.55;;;16.20;99.90;;;;;;6283490;22;20003;-89
2023/05/09 02:49:09;;;;;;;131.48;45.20;;;16.20;99.90;;;;;;6283257;22;20082;-90
2023/05/09 02:51:38;;;;;;;119.70;43.75;;;16.20;99.90;;;;;;6281989;22;20096;-88
2023/05/09 02:54:09;;;;;;;208.52;51.15;;;16.20;99.90;;;;;;6256928;22;20027;-88
2023/05/09 02:56:40;;;;;;;146.38;48.15;;;16.10;99.90;;;;;;6282609;22;20008;-89
2023/05/09 02:59:09;;;;;;;152.90;47.92;;;16.10;99.90;;;;;;6281750;22;20413;-90
2023/05/09 03:01:34;;;;;;;150.02;48.42;;;16.10;99.90;;;;;;6281489;22;20026;-89
2023/05/09 03:04:03;;;;;;;166.23;49.70;;;16.00;99.90;;;;;;6256212;22;20033;-89
2023/05/09 03:06:31;;;;;;;161.00;47.65;;;16.00;99.90;;;;;;6255507;22;20010;-93
2023/05/09 03:11:43;;;;;;;148.10;47.63;;;16.00;99.90;;;;;;6285842;22;20061;-89
2023/05/09 03:14:10;;;;;;;149.27;47.58;;;16.00;99.90;;;;;;6285529;22;20003;-89
2023/05/09 03:16:38;;;;;;;148.57;46.55;;;16.00;99.90;;;;;;6282694;22;20000;-89
2023/05/09 03:19:11;;;;;;;196.40;52.60;;;16.00;99.90;;;;;;6281724;22;20002;-89
2023/05/09 03:21:37;;;;;;;178.10;51.88;;;16.00;99.90;;;;;;6281971;22;19999;-90
2023/05/09 03:24:05;;;;;;;165.25;50.17;;;16.00;99.90;;;;;;6281509;22;20014;-90
2023/05/09 03:26:39;;;;;;;151.05;46.70;;;16.00;99.90;;;;;;6256559;22;20022;-93
2023/05/09 03:29:04;;;;;;;170.35;50.65;;;16.00;99.90;;;;;;6308851;22;20066;-89
2023/05/09 03:31:30;;;;;;;144.43;47.80;;;16.00;99.90;;;;;;6281185;22;20006;-89
2023/05/09 03:33:56;;;;;;;177.55;51.13;;;15.90;99.90;;;;;;6281398;22;20071;-89
2023/05/09 03:36:22;;;;;;;155.80;47.97;;;15.90;99.90;;;;;;6281384;22;20429;-89
2023/05/09 03:38:48;;;;;;;149.68;48.53;;;15.90;99.90;;;;;;6255672;22;20006;-90
2023/05/09 03:41:16;;;;;;;153.98;48.20;;;15.80;99.90;;;;;;6255945;22;20082;-89
2023/05/09 03:43:46;;;;;;;149.90;47.58;;;15.80;99.90;;;;;;6280884;22;20076;-89
2023/05/09 03:46:15;;;;;;;154.75;49.38;;;15.80;99.90;;;;;;6256864;22;20014;-89
2023/05/09 03:48:42;;;;;;;153.23;49.28;;;15.80;99.90;;;;;;6255948;22;20004;-89
2023/05/09 03:51:08;;;;;;;146.13;46.65;;;15.80;99.90;;;;;;6281397;22;20003;-88
2023/05/09 03:53:37;;;;;;;148.75;47.30;;;15.80;99.90;;;;;;6255474;22;20008;-93
2023/05/09 03:56:03;;;;;;;140.80;45.10;;;15.80;99.90;;;;;;6231661;22;20007;-89
2023/05/09 03:58:29;;;;;;;207.95;50.75;;;15.80;99.90;;;;;;6281026;22;19999;-89
2023/05/09 04:01:02;;;;;;;135.57;45.40;;;15.80;99.90;;;;;;6281542;22;20388;-90
2023/05/09 04:03:31;;;;;;;164.38;46.67;;;15.70;99.90;;;;;;6281662;22;20003;-89
2023/05/09 04:06:00;;;;;;;152.43;49.08;;;15.80;99.90;;;;;;6281853;22;20090;-89
2023/05/09 04:08:28;;;;;;;236.48;52.25;;;15.80;99.90;;;;;;6282275;22;19999;-89
2023/05/09 04:10:54;;;;;;;181.65;48.45;;;15.70;99.90;;;;;;6261780;22;20003;-90
2023/05/09 04:13:20;;;;;;;147.18;45.42;;;15.80;99.90;;;;;;6289846;22;20047;-88
2023/05/09 04:15:46;;;;;;;145.32;46.90;;;15.80;99.90;;;;;;6299732;22;20037;-89
2023/05/09 04:18:14;;;;;;;141.23;47.55;;;15.70;99.90;;;;;;6273602;22;20004;-90
2023/05/09 04:20:49;;;;;;;124.78;46.45;;;15.70;99.90;;;;;;6316256;22;20010;-88
2023/05/09 04:23:15;;;;;;;136.48;48.33;;;15.70;99.90;;;;;;6266123;22;20014;-87
2023/05/09 04:25:46;;;;;;;131.68;45.15;;;15.70;99.90;;;;;;6326858;22;19999;-88
2023/05/09 04:28:12;;;;;;;147.00;47.97;;;15.70;99.90;;;;;;6261945;22;20010;-89
2023/05/09 04:30:39;;;;;;;151.65;46.70;;;15.60;99.90;;;;;;6283866;22;20035;-89
2023/05/09 04:33:07;;;;;;;141.90;46.33;;;15.60;99.90;;;;;;6262873;22;20003;-89
2023/05/09 04:35:38;;;;;;;133.05;46.40;;;15.60;99.90;;;;;;6260554;22;20007;-88
2023/05/09 04:38:06;;;;;;;130.13;46.05;;;15.50;99.90;;;;;;6236603;22;20437;-88
2023/05/09 04:40:37;;;;;;;133.77;45.67;;;15.50;99.90;;;;;;6285960;22;20086;-89
2023/05/09 04:43:06;;;;;;;;;;;15.50;99.90;;;;;;6261818;22;20000;-89
2023/05/09 04:45:32;;;;;;;133.20;41.33;;;15.50;99.90;;;;;;6286768;22;19899;-90
2023/05/09 04:48:03;;;;;;;120.85;43.17;;;15.50;99.90;;;;;;6285742;22;20006;-88
2023/05/09 04:50:43;;;;;;;110.25;43.45;;;15.50;99.90;;;;;;6262674;22;20018;-89
2023/05/09 04:53:09;;;;;;;111.63;42.20;;;15.60;99.90;;;;;;6282976;22;20456;-88
2023/05/09 04:55:38;;;;;;;115.05;43.38;;;15.50;99.90;;;;;;6283071;22;20011;-89
2023/05/09 04:58:07;;;;;;;135.23;42.65;;;15.50;99.90;;;;;;6283431;22;20011;-89
2023/05/09 05:00:36;;;;;;;108.18;42.33;;;15.50;99.90;;;;;;6282999;22;20490;-92
2023/05/09 05:03:02;;;;;;;99.68;40.13;;;15.50;99.90;;;;;;6283777;22;20057;-91
2023/05/09 05:05:36;;;;;;;109.43;40.55;;;15.50;99.90;;;;;;6283166;22;20360;-91
2023/05/09 05:08:05;;;;;;;95.03;40.35;;;15.40;99.90;;;;;;6283646;22;20000;-90
2023/05/09 05:10:40;;;;;;;119.57;42.17;;;15.40;99.90;;;;;;6283275;22;20013;-90
2023/05/09 05:13:08;;;;;;;92.97;40.08;;;15.40;99.90;;;;;;6285763;22;20002;-89
2023/05/09 05:15:34;;;;;;;115.80;40.85;;;15.40;99.90;;;;;;6238267;22;20082;-88
2023/05/09 05:18:00;;;;;;;104.50;41.90;;;15.30;99.90;;;;;;6282785;22;20007;-89
2023/05/09 05:20:28;;;;;;;115.70;41.70;;;15.30;99.90;;;;;;6287367;22;20078;-89
2023/05/09 05:23:08;;;;;;;105.28;40.65;;;15.30;99.90;;;;;;6284647;22;20431;-91
2023/05/09 05:25:35;;;;;;;100.10;40.92;;;15.30;99.90;;;;;;6289453;22;20014;-89
2023/05/09 05:28:01;;;;;;;113.97;41.38;;;15.30;99.90;;;;;;6290152;22;20005;-89
2023/05/09 05:30:29;;;;;;;111.28;39.28;;;15.30;99.90;;;;;;6284464;22;20005;-92
2023/05/09 05:32:58;;;;;;;124.00;42.85;;;15.30;99.90;;;;;;6284874;22;20002;-90
2023/05/09 05:35:30;;;;;;;123.68;42.20;;;15.30;99.90;;;;;;6285318;22;20007;-90
2023/05/09 05:37:55;;;;;;;120.45;42.45;;;15.30;99.90;;;;;;6239153;22;20088;-91
2023/05/09 05:40:21;;;;;;;116.25;42.83;;;15.30;99.90;;;;;;6314326;22;20359;-89
2023/05/09 05:42:50;;;;;;;112.72;41.42;;;15.30;99.90;;;;;;6289055;22;19999;-89
2023/05/09 05:45:18;;;;;;;100.07;38.40;;;15.30;99.90;;;;;;6286172;22;19999;-90
2023/05/09 05:47:57;;;;;;;99.07;37.17;;;15.30;99.90;;;;;;6285301;22;20006;-88
2023/05/09 05:50:33;;;;;;;103.63;40.25;;;15.30;99.90;;;;;;6260674;22;20000;-90
2023/05/09 05:53:01;;;;;;;83.20;35.83;;;15.30;99.90;;;;;;6283038;22;20007;-89
2023/05/09 05:55:44;;;;;;;;;;;;;;;;;;;;;
2023/05/09 05:58:21;;;;;;;87.20;38.38;;;15.30;99.90;;;;;;6311314;22;20086;-89
2023/05/09 06:00:47;;;;;;;74.32;35.25;;;15.30;99.90;;;;;;6283025;22;20082;-90
2023/05/09 06:03:17;;;;;;;73.07;34.05;;;15.30;99.90;;;;;;6258035;22;19999;-90
2023/05/09 06:05:46;;;;;;;66.38;32.08;;;15.20;99.90;;;;;;6283731;22;20436;-90
2023/05/09 06:08:15;;;;;;;72.13;34.90;;;15.30;99.90;;;;;;6283673;22;20003;-88
2023/05/09 06:10:43;;;;;;;75.18;33.15;;;15.20;99.90;;;;;;6285493;22;20474;-90
2023/05/09 06:17:08;;;;;;;58.90;31.25;;;15.30;99.90;;;;;;6312507;22;20034;-91
2023/05/09 06:19:34;;;;;;;63.95;32.25;;;15.20;99.90;;;;;;6284114;22;20007;-90
2023/05/09 06:22:10;;;;;;;60.90;30.27;;;15.20;99.90;;;;;;6260312;22;20056;-90
2023/05/09 06:24:41;;;;;;;56.88;30.73;;;15.20;99.90;;;;;;6285829;22;19999;-90
2023/05/09 06:27:09;;;;;;;50.00;27.83;;;15.30;99.90;;;;;;6284892;22;19999;-89
2023/05/09 06:29:35;;;;;;;48.28;28.00;;;15.20;99.90;;;;;;6284575;22;20070;-90
2023/05/09 06:32:11;;;;;;;52.17;28.50;;;15.30;99.90;;;;;;6261078;22;20010;-89
2023/05/09 06:34:40;;;;;;;46.97;26.13;;;15.20;99.90;;;;;;6263511;22;20007;-90
2023/05/09 06:37:09;;;;;;;44.03;25.92;;;15.20;99.90;;;;;;6293529;22;20437;-90
2023/05/09 06:39:34;;;;;;;38.95;23.27;;;15.20;99.90;;;;;;6262281;22;20014;-89
2023/05/09 06:42:03;;;;;;;45.22;27.20;;;15.20;99.90;;;;;;6283195;22;20027;-91
2023/05/09 06:44:31;;;;;;;40.70;23.85;;;15.20;99.90;;;;;;6259628;22;20019;-94
2023/05/09 06:46:57;;;;;;;42.80;24.98;;;15.20;99.90;;;;;;6284507;22;20002;-90
2023/05/09 06:52:50;;;;;;;40.88;25.90;;;15.30;99.90;;;;;;6292625;22;20030;-93
2023/05/09 06:55:16;;;;;;;39.47;25.33;;;15.30;99.90;;;;;;6285111;22;20010;-91
2023/05/09 06:57:50;;;;;;;41.60;24.55;;;15.40;99.90;;;;;;6257607;22;20073;-91
2023/05/09 07:00:23;;;;;;;39.35;24.33;;;15.40;99.90;;;;;;6283371;22;19995;-90
2023/05/09 07:02:56;;;;;;;39.35;23.77;;;15.40;99.90;;;;;;6284025;22;20019;-91
2023/05/09 07:05:22;;;;;;;37.92;24.65;;;15.40;99.90;;;;;;6283212;22;20003;-92
2023/05/09 07:07:49;;;;;;;35.22;24.10;;;15.40;99.90;;;;;;6284418;22;20038;-93
2023/05/09 07:10:37;;;;;;;38.22;24.20;;;15.40;99.90;;;;;;6284562;22;20409;-92
2023/05/09 07:13:03;;;;;;;39.38;25.33;;;15.40;99.90;;;;;;6262324;22;20007;-93
2023/05/09 07:15:38;;;;;;;35.50;24.02;;;15.40;99.90;;;;;;6282700;22;20010;-91
2023/05/09 07:18:07;;;;;;;35.05;22.70;;;15.40;99.90;;;;;;6282759;22;20003;-91
2023/05/09 07:20:42;;;;;;;35.03;24.15;;;15.50;99.90;;;;;;6284348;22;20038;-93
2023/05/09 07:23:15;;;;;;;38.50;24.40;;;15.50;99.90;;;;;;6286764;22;20003;-92
2023/05/09 07:25:42;;;;;;;35.17;23.63;;;15.50;99.90;;;;;;6261460;22;20011;-92
2023/05/09 07:28:11;;;;;;;38.47;25.42;;;15.60;99.90;;;;;;6257047;22;19999;-93
2023/05/09 07:31:12;;;;;;;37.17;25.25;;;15.60;99.90;;;;;;6258275;22;20007;-93
2023/05/09 07:33:41;;;;;;;40.08;25.20;;;15.60;99.90;;;;;;6254572;22;20014;-94
2023/05/09 07:36:17;;;;;;;;;;;;;;;;;;;;;
2023/05/09 07:39:11;;;;;;;38.10;26.23;;;15.70;99.90;;;;;;6322026;22;20033;-95
2023/05/09 07:41:49;;;;;;;38.90;25.50;;;15.70;99.90;;;;;;6296459;22;20000;-93
2023/05/09 07:44:19;;;;;;;36.25;24.23;;;15.70;99.90;;;;;;6293177;22;20017;-92
2023/05/09 07:46:48;;;;;;;34.67;23.85;;;15.70;99.90;;;;;;6273769;22;20011;-90
2023/05/09 07:49:16;;;;;;;32.50;23.10;;;15.70;99.90;;;;;;6304106;22;19996;-92
2023/05/09 07:51:42;;;;;;;31.45;23.45;;;15.80;99.90;;;;;;6267738;22;20015;-91
2023/05/09 07:54:10;;;;;;;31.73;23.80;;;15.80;99.90;;;;;;6306970;22;20034;-94
2023/05/09 07:56:39;;;;;;;37.78;25.73;;;15.80;99.90;;;;;;6284882;22;20007;-94
2023/05/09 07:59:12;;;;;;;34.78;24.88;;;15.80;99.90;;;;;;6285089;22;20064;-94
2023/05/09 08:01:52;;;;;;;33.03;24.48;;;15.90;99.90;;;;;;6285393;22;20013;-93
2023/05/09 08:04:21;;;;;;;33.38;23.35;;;16.00;99.90;;;;;;6308985;22;20007;-94
2023/05/09 08:06:56;;;;;;;34.58;25.17;;;16.00;99.90;;;;;;6300348;22;20041;-94
2023/05/09 08:09:22;;;;;;;32.45;23.55;;;16.00;99.90;;;;;;6301060;22;20000;-91
2023/05/09 08:12:00;;;;;;;35.83;22.92;;;16.00;99.90;;;;;;6288360;22;20000;-92
2023/05/09 08:14:29;;;;;;;32.13;23.00;;;16.00;99.90;;;;;;6286026;22;20003;-92
2023/05/09 08:16:55;;;;;;;31.40;24.88;;;16.10;99.90;;;;;;6286081;22;20030;-92
2023/05/09 08:19:29;;;;;;;31.50;23.42;;;16.10;99.90;;;;;;6288001;22;19999;-93
2023/05/09 08:21:55;;;;;;;35.80;24.00;;;16.10;99.90;;;;;;6286797;22;20362;-92
2023/05/09 08:24:21;;;;;;;34.67;24.77;;;16.10;99.90;;;;;;6260198;22;20071;-92
2023/05/09 08:26:59;;;;;;;35.70;24.30;;;16.10;99.90;;;;;;6286933;22;20060;-92
2023/05/09 08:29:34;;;;;;;32.25;22.77;;;16.20;99.90;;;;;;6287214;22;20019;-92
2023/05/09 08:32:05;;;;;;;34.80;23.23;;;16.20;99.90;;;;;;6285017;22;20061;-92
2023/05/09 08:34:33;;;;;;;27.33;21.48;;;16.20;99.90;;;;;;6312548;22;20020;-91
2023/05/09 08:37:18;;;;;;;30.35;21.00;;;16.20;99.90;;;;;;6284981;22;20429;-92
2023/05/09 08:39:52;;;;;;;27.77;22.02;;;16.20;99.90;;;;;;6260621;22;20004;-90
2023/05/09 08:42:22;;;;;;;31.25;21.90;;;16.20;99.90;;;;;;6285052;22;20437;-90
2023/05/09 08:44:48;;;;;;;30.67;22.37;;;16.30;99.90;;;;;;6287270;22;20010;-90
2023/05/09 08:47:26;;;;;;;29.30;22.08;;;16.30;99.90;;;;;;6300130;22;20074;-91
2023/05/09 08:49:52;;;;;;;29.33;22.35;;;16.30;99.90;;;;;;6287117;22;20027;-91
2023/05/09 08:52:24;;;;;;;29.17;21.73;;;16.30;99.90;;;;;;6259400;22;20429;-91
2023/05/09 08:55:08;;;;;;;30.65;22.15;;;16.30;99.90;;;;;;6261034;22;20015;-90
2023/05/09 08:57:43;;;;;;;27.83;22.15;;;16.30;99.90;;;;;;6293293;22;20006;-90
2023/05/09 09:00:13;;;;;;;33.22;24.42;;;16.30;99.90;;;;;;6294983;22;20019;-90
2023/05/09 09:02:46;;;;;;;30.85;21.92;;;16.40;99.90;;;;;;6267934;22;19999;-92
2023/05/09 09:05:17;;;;;;;34.17;23.38;;;16.40;99.90;;;;;;6284987;22;20004;-92
2023/05/09 09:07:46;;;;;;;31.98;23.25;;;16.40;99.90;;;;;;6285809;22;20127;-95
2023/05/09 09:10:15;;;;;;;28.35;22.10;;;16.30;99.90;;;;;;6286175;22;20401;-93
2023/05/09 09:12:44;;;;;;;30.33;22.63;;;16.30;99.90;;;;;;6284650;22;20004;-92
2023/05/09 09:15:17;;;;;;;27.50;22.05;;;16.30;99.90;;;;;;6285603;22;20015;-92
2023/05/09 09:17:45;;;;;;;31.55;23.67;;;16.30;99.90;;;;;;6285093;22;20003;-92
2023/05/09 09:20:18;;;;;;;28.85;21.83;;;16.30;99.90;;;;;;6284601;22;20329;-92
2023/05/09 09:22:54;;;;;;;28.70;19.75;;;16.30;99.90;;;;;;6285144;22;20074;-91
2023/05/09 09:25:25;;;;;;;23.67;18.55;;;16.30;99.90;;;;;;6284974;22;20006;-91
2023/05/09 09:28:18;;;;;;;;;;;16.30;99.90;;;;;;6236387;22;20021;-92
2023/05/09 09:30:57;;;;;;;23.90;17.98;;;16.30;99.90;;;;;;6285216;22;19899;-93
2023/05/09 09:33:31;;;;;;;21.83;17.55;;;16.30;99.90;;;;;;6260548;22;19999;-93
2023/05/09 09:36:12;;;;;;;22.60;16.73;;;16.30;99.90;;;;;;6284904;22;20445;-92
2023/05/09 09:38:45;;;;;;;19.40;15.38;;;16.30;99.90;;;;;;6261492;22;19999;-92
2023/05/09 09:41:12;;;;;;;22.55;15.88;;;16.30;99.90;;;;;;6259126;22;20436;-91
2023/05/09 09:43:47;;;;;;;23.02;14.77;;;16.30;99.90;;;;;;6285780;22;20005;-91
2023/05/09 09:46:18;;;;;;;18.08;13.02;;;16.30;99.90;;;;;;6285329;22;20308;-92
2023/05/09 09:48:51;;;;;;;19.88;14.30;;;16.30;99.90;;;;;;6285937;22;20007;-91
2023/05/09 09:51:19;;;;;;;16.98;13.02;;;16.30;99.90;;;;;;6284488;22;19996;-91
2023/05/09 09:53:52;;;;;;;20.80;14.15;;;16.30;99.90;;;;;;6259167;22;20018;-91
2023/05/09 09:56:39;;;;;;;14.77;12.90;;;16.30;99.90;;;;;;6259616;22;20049;-92
2023/05/09 09:59:33;;;;;;;15.45;13.02;;;16.30;99.90;;;;;;6285029;22;20365;-93
2023/05/09 10:02:05;;;;;;;14.00;11.50;;;16.30;99.90;;;;;;6285028;22;19999;-90
2023/05/09 10:04:40;;;;;;;15.88;11.25;;;16.30;99.90;;;;;;6284037;22;20014;-91
2023/05/09 10:07:09;;;;;;;12.07;10.07;;;16.40;99.90;;;;;;6301022;22;19990;-89
2023/05/09 10:09:41;;;;;;;16.33;10.35;;;16.40;99.90;;;;;;6294667;22;20000;-91
2023/05/09 10:12:07;;;;;;;13.32;10.18;;;16.40;99.90;;;;;;6284718;22;19995;-90
2023/05/09 10:14:40;;;;;;;11.75;10.43;;;16.50;99.90;;;;;;6284867;22;20490;-91
2023/05/09 10:17:09;;;;;;;11.70;9.20;;;16.50;99.90;;;;;;6288761;22;19995;-90
2023/05/09 10:19:40;;;;;;;10.95;9.40;;;16.50;99.90;;;;;;6304263;22;20010;-92
2023/05/09 10:22:18;;;;;;;12.38;10.27;;;16.60;99.90;;;;;;6290329;22;19999;-90
2023/05/09 10:25:11;;;;;;;11.57;8.80;;;16.60;99.90;;;;;;6285345;22;20007;-91
2023/05/09 10:27:42;;;;;;;13.15;9.65;;;16.60;99.90;;;;;;6280987;22;20082;-89
2023/05/09 10:30:12;;;;;;;13.32;9.77;;;16.60;99.90;;;;;;6284520;22;20022;-90
2023/05/09 10:32:53;;;;;;;10.88;9.00;;;16.60;99.90;;;;;;6284130;22;20413;-91
2023/05/09 10:35:38;;;;;;;;;;;16.60;99.90;;;;;;6312114;22;20042;-94
2023/05/09 10:38:10;;;;;;;10.07;8.68;;;16.60;99.90;;;;;;6286495;22;19905;-95
2023/05/09 10:40:45;;;;;;;11.27;9.52;;;16.60;99.90;;;;;;6313773;22;20057;-91
2023/05/09 10:43:27;;;;;;;;;;;;;;;;;;;;;
2023/05/09 10:45:55;;;;;;;10.20;8.60;;;16.60;99.90;;;;;;6311357;22;20089;-90
2023/05/09 10:52:20;;;;;;;;;;;;;;;;;;;;;
2023/05/09 10:55:07;;;;;;;14.10;10.10;;;16.70;99.90;;;;;;6294647;22;20093;-92
2023/05/09 10:58:07;;;;;;;12.48;10.68;;;16.60;99.90;;;;;;6261321;22;20030;-94
2023/05/09 11:00:43;;;;;;;14.60;11.35;;;16.60;99.90;;;;;;6284224;22;19999;-93
2023/05/09 11:06:48;;;;;;;15.00;11.63;;;16.60;99.90;;;;;;6232708;22;20000;-90
2023/05/09 11:09:31;;;;;;;15.55;12.13;;;16.50;99.90;;;;;;6286963;22;20007;-90
2023/05/09 11:12:03;;;;;;;14.52;11.50;;;16.50;99.90;;;;;;6297954;22;19999;-91
2023/05/09 11:14:53;;;;;;;;;;;;;;;;;;;;;
2023/05/09 11:17:35;;;;;;;11.95;9.93;;;16.40;99.90;;;;;;6313109;22;20071;-93
2023/05/09 11:23:05;;;;;;;;;;;16.40;99.90;;;;;;6260924;22;20003;-93
2023/05/09 11:25:36;;;;;;;11.13;8.20;;;16.30;99.90;;;;;;6284643;22;19899;-94
2023/05/09 11:28:05;;;;;;;12.65;8.80;;;16.20;99.90;;;;;;6285032;22;20171;-95
2023/05/09 11:30:46;;;;;;;11.23;8.35;;;16.20;99.90;;;;;;6287651;22;20089;-95
2023/05/09 11:33:46;;;;;;;11.77;9.00;;;16.20;99.90;;;;;;6272822;22;20004;-92
2023/05/09 11:36:41;;;;;;;10.30;8.13;;;16.20;99.90;;;;;;6334673;22;20033;-93
2023/05/09 11:39:26;;;;;;;10.27;8.02;;;16.10;99.90;;;;;;6302830;22;20023;-93
2023/05/09 11:41:56;;;;;;;8.70;7.15;;;16.10;99.90;;;;;;6308271;22;20003;-94
2023/05/09 11:44:32;;;;;;;9.13;7.10;;;16.00;99.90;;;;;;6308026;22;20014;-92
2023/05/09 11:46:58;;;;;;;11.50;6.85;;;16.00;99.90;;;;;;6281837;22;20019;-93
2023/05/09 11:49:24;;;;;;;9.20;6.95;;;15.90;99.90;;;;;;6305157;22;20328;-92
2023/05/09 11:51:50;;;;;;;10.82;7.15;;;15.90;99.90;;;;;;6299713;22;20010;-92
2023/05/09 11:54:15;;;;;;;10.77;7.80;;;15.90;99.90;;;;;;6286354;22;20007;-92
2023/05/09 11:56:42;;;;;;;11.60;7.03;;;15.90;99.90;;;;;;6310986;22;20000;-93
2023/05/09 11:59:17;;;;;;;11.52;7.90;;;15.90;99.90;;;;;;6283928;22;20068;-91
2023/05/09 12:05:52;;;;;;;8.05;5.88;;;15.90;99.90;;;;;;6224627;22;20013;-94
2023/05/09 12:08:44;;;;;;;;;;;;;;;;;;;;;
2023/05/09 12:11:11;;;;;;;5.68;3.70;;;15.90;99.90;;;;;;6285535;22;20060;-92
2023/05/09 12:16:45;;;;;;;9.38;4.22;;;15.70;99.90;;;;;;6310462;22;20034;-93
2023/05/09 12:19:13;;;;;;;8.50;4.30;;;15.60;99.90;;;;;;6289723;22;20397;-90
2023/05/09 12:21:58;;;;;;;7.18;4.25;;;15.60;99.90;;;;;;6298230;22;20006;-91
2023/05/09 12:24:36;;;;;;;6.15;4.05;;;15.60;99.90;;;;;;6283189;22;19999;-92
2023/05/09 12:27:10;;;;;;;9.95;4.70;;;15.60;99.90;;;;;;6283407;22;20037;-92
2023/05/09 12:29:46;;;;;;;7.00;4.65;;;15.60;99.90;;;;;;6310505;22;20026;-92
2023/05/09 12:32:16;;;;;;;7.05;5.00;;;15.60;99.90;;;;;;6283488;22;19999;-92
2023/05/09 12:38:21;;;;;;;8.45;5.70;;;15.70;99.90;;;;;;6310515;22;20478;-92
2023/05/09 12:41:03;;;;;;;9.25;5.30;;;15.70;99.90;;;;;;6285166;22;20090;-93
2023/05/09 12:43:32;;;;;;;7.93;5.30;;;15.70;99.90;;;;;;6286487;22;20026;-91
2023/05/09 12:46:07;;;;;;;7.45;5.22;;;15.80;99.90;;;;;;6286886;22;20094;-91
2023/05/09 12:48:49;;;;;;;6.68;4.50;;;15.80;99.90;;;;;;6323528;22;19999;-91
2023/05/09 12:51:53;;;;;;;6.75;5.30;;;15.80;99.90;;;;;;6318026;22;20011;-92
2023/05/09 12:54:26;;;;;;;7.72;5.10;;;15.70;99.90;;;;;;6285554;22;20409;-93
2023/05/09 12:57:50;;;;;;;6.35;5.15;;;15.70;99.90;;;;;;6188706;23;20327;-93
2023/05/09 13:00:52;;;;;;;9.05;5.78;;;15.70;99.90;;;;;;6162503;23;20005;-92
2023/05/09 13:10:59;;;;;;;;;;;;;;;;;;;;;
2023/05/09 13:36:26;;;;;;;;;;;;;;;;;;;;;
2023/05/09 13:42:34;;;;;;;10.90;6.65;;;15.70;99.90;;;;;;6071412;23;20017;-93
2023/05/09 13:48:36;;;;;;;8.43;6.53;;;15.70;99.90;;;;;;6127509;23;20021;-91
2023/05/09 13:51:09;;;;;;;9.63;6.55;;;15.80;99.90;;;;;;6137315;23;20032;-91
2023/05/09 13:54:11;;;;;;;;;;;;;;;;;;;;;
2023/05/09 13:57:30;;;;;;;;;;;;;;;;;;;;;
2023/05/09 14:00:20;;;;;;;3.92;3.13;;;15.70;99.90;;;;;;6099477;23;20058;-92
2023/05/09 14:09:38;;;;;;;;;;;;;;;;;;;;;
2023/05/09 14:12:08;;;;;;;4.80;3.65;;;15.40;99.90;;;;;;6312685;22;20074;-94
2023/05/09 14:15:15;;;;;;;;;;;;;;;;;;;;;
2023/05/09 14:27:35;;;;;;;4.85;3.50;;;15.30;99.90;;;;;;6142630;23;20073;-92
2023/05/09 14:33:53;;;;;;;5.63;4.47;;;15.20;99.90;;;;;;6169309;23;20225;-91
2023/05/09 14:41:02;;;;;;;;;;;;;;;;;;;;;
2023/05/09 14:58:13;;;;;;;9.88;5.97;;;15.20;99.90;;;;;;6132264;23;20495;-93
2023/05/09 15:08:22;;;;;;;;;;;;;;;;;;;;;